sensor_id;sensor_type;location;lat;lon;timestamp;P1;durP1;ratioP1;P2;durP2;ratioP2
16862;SDS011;52193;48.216;-1.698;2022-12-07T00:01:28;21.13;;;19.13;;
16862;SDS011;52193;48.216;-1.698;2022-12-07T00:03:57;20.40;;;18.40;;
16862;SDS011;52193;48.216;-1.698;2022-12-07T00:06:31;19.02;;;17.48;;
16862;SDS011;52193;48.216;-1.698;2022-12-07T00:08:58;19.15;;;17.55;;
16862;SDS011;52193;48.216;-1.698;2022-12-07T00:11:25;18.00;;;16.50;;
16862;SDS011;52193;48.216;-1.698;2022-12-07T00:13:53;18.90;;;17.30;;
16862;SDS011;52193;48.216;-1.698;2022-12-07T00:16:22;18.48;;;16.88;;
16862;SDS011;52193;48.216;-1.698;2022-12-07T00:18:51;19.83;;;18.23;;
16862;SDS011;52193;48.216;-1.698;2022-12-07T00:21:19;20.73;;;18.80;;
16862;SDS011;52193;48.216;-1.698;2022-12-07T00:23:49;21.08;;;19.23;;
16862;SDS011;52193;48.216;-1.698;2022-12-07T00:26:18;20.85;;;18.95;;
16862;SDS011;52193;48.216;-1.698;2022-12-07T00:28:46;20.38;;;18.65;;
16862;SDS011;52193;48.216;-1.698;2022-12-07T00:31:15;18.42;;;16.83;;
16862;SDS011;52193;48.216;-1.698;2022-12-07T00:33:43;18.95;;;17.35;;
16862;SDS011;52193;48.216;-1.698;2022-12-07T00:36:11;17.80;;;16.40;;
16862;SDS011;52193;48.216;-1.698;2022-12-07T00:38:40;18.50;;;17.00;;
16862;SDS011;52193;48.216;-1.698;2022-12-07T00:41:11;18.70;;;17.10;;
16862;SDS011;52193;48.216;-1.698;2022-12-07T00:43:39;18.02;;;16.55;;
16862;SDS011;52193;48.216;-1.698;2022-12-07T00:46:08;18.30;;;16.80;;
16862;SDS011;52193;48.216;-1.698;2022-12-07T00:48:35;16.80;;;15.50;;
16862;SDS011;52193;48.216;-1.698;2022-12-07T00:51:03;16.98;;;15.68;;
16862;SDS011;52193;48.216;-1.698;2022-12-07T00:53:31;17.83;;;16.42;;
16862;SDS011;52193;48.216;-1.698;2022-12-07T00:56:04;17.80;;;16.30;;
16862;SDS011;52193;48.216;-1.698;2022-12-07T00:58:33;19.77;;;18.08;;
16862;SDS011;52193;48.216;-1.698;2022-12-07T01:01:00;19.80;;;18.20;;
16862;SDS011;52193;48.216;-1.698;2022-12-07T01:03:29;20.80;;;19.00;;
16862;SDS011;52193;48.216;-1.698;2022-12-07T01:05:56;19.83;;;18.13;;
16862;SDS011;52193;48.216;-1.698;2022-12-07T01:08:24;19.63;;;17.95;;
16862;SDS011;52193;48.216;-1.698;2022-12-07T01:10:57;19.00;;;17.45;;
16862;SDS011;52193;48.216;-1.698;2022-12-07T01:13:25;19.17;;;17.53;;
16862;SDS011;52193;48.216;-1.698;2022-12-07T01:15:56;19.52;;;17.83;;
16862;SDS011;52193;48.216;-1.698;2022-12-07T01:18:25;20.55;;;18.85;;
16862;SDS011;52193;48.216;-1.698;2022-12-07T01:20:59;19.40;;;17.80;;
16862;SDS011;52193;48.216;-1.698;2022-12-07T01:23:27;18.10;;;16.70;;
16862;SDS011;52193;48.216;-1.698;2022-12-07T01:25:55;18.25;;;16.75;;
16862;SDS011;52193;48.216;-1.698;2022-12-07T01:28:23;17.85;;;16.35;;
16862;SDS011;52193;48.216;-1.698;2022-12-07T01:30:58;17.63;;;16.13;;
16862;SDS011;52193;48.216;-1.698;2022-12-07T01:33:26;17.90;;;16.40;;
16862;SDS011;52193;48.216;-1.698;2022-12-07T01:35:54;17.73;;;16.23;;
16862;SDS011;52193;48.216;-1.698;2022-12-07T01:38:26;17.48;;;16.08;;
16862;SDS011;52193;48.216;-1.698;2022-12-07T01:40:54;17.08;;;15.73;;
16862;SDS011;52193;48.216;-1.698;2022-12-07T01:43:21;17.95;;;16.50;;
16862;SDS011;52193;48.216;-1.698;2022-12-07T01:45:50;17.90;;;16.42;;
16862;SDS011;52193;48.216;-1.698;2022-12-07T01:48:19;17.52;;;16.13;;
16862;SDS011;52193;48.216;-1.698;2022-12-07T01:50:48;18.42;;;16.83;;
16862;SDS011;52193;48.216;-1.698;2022-12-07T01:53:17;18.70;;;17.20;;
16862;SDS011;52193;48.216;-1.698;2022-12-07T01:55:46;19.43;;;17.83;;
16862;SDS011;52193;48.216;-1.698;2022-12-07T01:58:18;19.15;;;17.58;;
16862;SDS011;52193;48.216;-1.698;2022-12-07T02:00:46;19.48;;;17.88;;
16862;SDS011;52193;48.216;-1.698;2022-12-07T02:03:13;19.67;;;18.08;;
16862;SDS011;52193;48.216;-1.698;2022-12-07T02:05:46;19.73;;;18.13;;
16862;SDS011;52193;48.216;-1.698;2022-12-07T02:08:14;21.17;;;19.27;;
16862;SDS011;52193;48.216;-1.698;2022-12-07T02:10:42;20.33;;;18.63;;
16862;SDS011;52193;48.216;-1.698;2022-12-07T02:13:09;21.30;;;19.40;;
16862;SDS011;52193;48.216;-1.698;2022-12-07T02:15:54;21.50;;;19.60;;
16862;SDS011;52193;48.216;-1.698;2022-12-07T02:18:38;20.87;;;19.07;;
16862;SDS011;52193;48.216;-1.698;2022-12-07T02:21:15;20.73;;;18.92;;
16862;SDS011;52193;48.216;-1.698;2022-12-07T02:23:59;21.15;;;19.35;;
16862;SDS011;52193;48.216;-1.698;2022-12-07T02:26:55;20.30;;;18.50;;
16862;SDS011;52193;48.216;-1.698;2022-12-07T02:29:39;20.08;;;18.33;;
16862;SDS011;52193;48.216;-1.698;2022-12-07T02:32:12;21.40;;;19.58;;
16862;SDS011;52193;48.216;-1.698;2022-12-07T02:34:44;21.50;;;19.67;;
16862;SDS011;52193;48.216;-1.698;2022-12-07T02:37:19;20.38;;;18.67;;
16862;SDS011;52193;48.216;-1.698;2022-12-07T02:39:54;19.43;;;17.83;;
16862;SDS011;52193;48.216;-1.698;2022-12-07T02:42:26;20.17;;;18.58;;
16862;SDS011;52193;48.216;-1.698;2022-12-07T02:45:01;19.67;;;18.07;;
16862;SDS011;52193;48.216;-1.698;2022-12-07T02:47:29;20.08;;;18.33;;
16862;SDS011;52193;48.216;-1.698;2022-12-07T02:50:00;20.02;;;18.33;;
16862;SDS011;52193;48.216;-1.698;2022-12-07T02:52:29;18.70;;;17.20;;
16862;SDS011;52193;48.216;-1.698;2022-12-07T02:54:56;19.55;;;17.98;;
16862;SDS011;52193;48.216;-1.698;2022-12-07T02:57:31;18.60;;;17.02;;
16862;SDS011;52193;48.216;-1.698;2022-12-07T03:00:09;18.20;;;16.77;;
16862;SDS011;52193;48.216;-1.698;2022-12-07T03:02:42;18.77;;;17.27;;
16862;SDS011;52193;48.216;-1.698;2022-12-07T03:05:31;17.60;;;16.20;;
16862;SDS011;52193;48.216;-1.698;2022-12-07T03:08:20;18.35;;;16.85;;
16862;SDS011;52193;48.216;-1.698;2022-12-07T03:10:54;18.30;;;16.90;;
16862;SDS011;52193;48.216;-1.698;2022-12-07T03:13:25;17.33;;;16.00;;
16862;SDS011;52193;48.216;-1.698;2022-12-07T03:16:01;18.20;;;16.70;;
16862;SDS011;52193;48.216;-1.698;2022-12-07T03:18:33;18.40;;;16.90;;
16862;SDS011;52193;48.216;-1.698;2022-12-07T03:21:05;18.50;;;17.00;;
16862;SDS011;52193;48.216;-1.698;2022-12-07T03:23:36;17.80;;;16.50;;
16862;SDS011;52193;48.216;-1.698;2022-12-07T03:26:08;18.40;;;17.00;;
16862;SDS011;52193;48.216;-1.698;2022-12-07T03:28:39;18.08;;;16.77;;
16862;SDS011;52193;48.216;-1.698;2022-12-07T03:31:13;17.77;;;16.38;;
16862;SDS011;52193;48.216;-1.698;2022-12-07T03:33:44;17.50;;;16.20;;
16862;SDS011;52193;48.216;-1.698;2022-12-07T03:36:19;17.73;;;16.38;;
16862;SDS011;52193;48.216;-1.698;2022-12-07T03:38:50;17.58;;;16.27;;
16862;SDS011;52193;48.216;-1.698;2022-12-07T03:41:22;17.10;;;15.80;;
16862;SDS011;52193;48.216;-1.698;2022-12-07T03:43:50;17.38;;;16.08;;
16862;SDS011;52193;48.216;-1.698;2022-12-07T03:46:24;17.35;;;16.05;;
16862;SDS011;52193;48.216;-1.698;2022-12-07T03:49:00;17.48;;;16.15;;
16862;SDS011;52193;48.216;-1.698;2022-12-07T03:51:37;17.38;;;16.08;;
16862;SDS011;52193;48.216;-1.698;2022-12-07T03:54:10;17.63;;;16.33;;
16862;SDS011;52193;48.216;-1.698;2022-12-07T03:56:42;18.15;;;16.67;;
16862;SDS011;52193;48.216;-1.698;2022-12-07T03:59:11;17.27;;;15.98;;
16862;SDS011;52193;48.216;-1.698;2022-12-07T04:01:42;17.15;;;15.65;;
16862;SDS011;52193;48.216;-1.698;2022-12-07T04:04:10;16.60;;;15.40;;
16862;SDS011;52193;48.216;-1.698;2022-12-07T04:06:37;16.33;;;15.13;;
16862;SDS011;52193;48.216;-1.698;2022-12-07T04:09:04;16.45;;;15.23;;
16862;SDS011;52193;48.216;-1.698;2022-12-07T04:11:31;16.73;;;15.52;;
16862;SDS011;52193;48.216;-1.698;2022-12-07T04:13:58;16.80;;;15.50;;
16862;SDS011;52193;48.216;-1.698;2022-12-07T04:16:43;16.05;;;14.85;;
16862;SDS011;52193;48.216;-1.698;2022-12-07T04:19:10;16.08;;;14.88;;
16862;SDS011;52193;48.216;-1.698;2022-12-07T04:21:37;16.42;;;15.23;;
16862;SDS011;52193;48.216;-1.698;2022-12-07T04:24:05;16.33;;;15.13;;
16862;SDS011;52193;48.216;-1.698;2022-12-07T04:26:32;16.52;;;15.32;;
16862;SDS011;52193;48.216;-1.698;2022-12-07T04:28:59;15.18;;;14.05;;
16862;SDS011;52193;48.216;-1.698;2022-12-07T04:31:26;15.60;;;14.43;;
16862;SDS011;52193;48.216;-1.698;2022-12-07T04:33:55;16.20;;;14.95;;
16862;SDS011;52193;48.216;-1.698;2022-12-07T04:36:22;15.80;;;14.60;;
16862;SDS011;52193;48.216;-1.698;2022-12-07T04:38:49;15.90;;;14.70;;
16862;SDS011;52193;48.216;-1.698;2022-12-07T04:41:16;16.88;;;15.57;;
16862;SDS011;52193;48.216;-1.698;2022-12-07T04:43:43;16.38;;;15.18;;
16862;SDS011;52193;48.216;-1.698;2022-12-07T04:46:10;17.73;;;16.42;;
16862;SDS011;52193;48.216;-1.698;2022-12-07T04:48:37;15.87;;;14.70;;
16862;SDS011;52193;48.216;-1.698;2022-12-07T04:51:05;16.00;;;14.70;;
16862;SDS011;52193;48.216;-1.698;2022-12-07T04:53:32;15.55;;;14.45;;
16862;SDS011;52193;48.216;-1.698;2022-12-07T04:55:59;16.65;;;15.38;;
16862;SDS011;52193;48.216;-1.698;2022-12-07T04:58:27;15.10;;;14.10;;
16862;SDS011;52193;48.216;-1.698;2022-12-07T05:00:54;14.97;;;13.83;;
16862;SDS011;52193;48.216;-1.698;2022-12-07T05:03:21;15.30;;;14.20;;
16862;SDS011;52193;48.216;-1.698;2022-12-07T05:05:48;15.43;;;14.32;;
16862;SDS011;52193;48.216;-1.698;2022-12-07T05:08:16;14.20;;;13.30;;
16862;SDS011;52193;48.216;-1.698;2022-12-07T05:10:43;11.73;;;10.63;;
16862;SDS011;52193;48.216;-1.698;2022-12-07T05:13:10;12.27;;;9.18;;
16862;SDS011;52193;48.216;-1.698;2022-12-07T05:15:37;13.48;;;9.68;;
16862;SDS011;52193;48.216;-1.698;2022-12-07T05:18:04;14.80;;;10.88;;
16862;SDS011;52193;48.216;-1.698;2022-12-07T05:20:31;14.27;;;12.60;;
16862;SDS011;52193;48.216;-1.698;2022-12-07T05:22:58;16.90;;;15.50;;
16862;SDS011;52193;48.216;-1.698;2022-12-07T05:25:26;16.75;;;15.45;;
16862;SDS011;52193;48.216;-1.698;2022-12-07T05:27:54;17.15;;;15.85;;
16862;SDS011;52193;48.216;-1.698;2022-12-07T05:30:21;16.73;;;15.52;;
16862;SDS011;52193;48.216;-1.698;2022-12-07T05:32:49;14.27;;;13.23;;
16862;SDS011;52193;48.216;-1.698;2022-12-07T05:35:16;15.52;;;14.35;;
16862;SDS011;52193;48.216;-1.698;2022-12-07T05:37:43;15.20;;;14.10;;
16862;SDS011;52193;48.216;-1.698;2022-12-07T05:40:10;15.18;;;14.05;;
16862;SDS011;52193;48.216;-1.698;2022-12-07T05:42:40;15.57;;;14.30;;
16862;SDS011;52193;48.216;-1.698;2022-12-07T05:45:08;15.13;;;14.02;;
16862;SDS011;52193;48.216;-1.698;2022-12-07T05:47:36;16.00;;;14.70;;
16862;SDS011;52193;48.216;-1.698;2022-12-07T05:50:04;15.73;;;14.52;;
16862;SDS011;52193;48.216;-1.698;2022-12-07T05:52:32;16.02;;;14.82;;
16862;SDS011;52193;48.216;-1.698;2022-12-07T05:54:59;16.40;;;15.13;;
16862;SDS011;52193;48.216;-1.698;2022-12-07T05:57:26;17.55;;;16.15;;
16862;SDS011;52193;48.216;-1.698;2022-12-07T05:59:55;17.08;;;15.77;;
16862;SDS011;52193;48.216;-1.698;2022-12-07T06:02:21;17.38;;;15.98;;
16862;SDS011;52193;48.216;-1.698;2022-12-07T06:04:48;16.85;;;15.63;;
16862;SDS011;52193;48.216;-1.698;2022-12-07T06:07:15;16.63;;;15.32;;
16862;SDS011;52193;48.216;-1.698;2022-12-07T06:09:43;16.13;;;14.93;;
16862;SDS011;52193;48.216;-1.698;2022-12-07T06:12:10;15.65;;;14.55;;
16862;SDS011;52193;48.216;-1.698;2022-12-07T06:14:57;16.30;;;15.00;;
16862;SDS011;52193;48.216;-1.698;2022-12-07T06:17:24;16.15;;;14.85;;
16862;SDS011;52193;48.216;-1.698;2022-12-07T06:19:51;15.67;;;14.47;;
16862;SDS011;52193;48.216;-1.698;2022-12-07T06:22:18;15.77;;;14.57;;
16862;SDS011;52193;48.216;-1.698;2022-12-07T06:24:45;16.38;;;15.00;;
16862;SDS011;52193;48.216;-1.698;2022-12-07T06:27:12;16.05;;;14.85;;
16862;SDS011;52193;48.216;-1.698;2022-12-07T06:29:39;15.95;;;14.80;;
16862;SDS011;52193;48.216;-1.698;2022-12-07T06:32:08;14.83;;;13.73;;
16862;SDS011;52193;48.216;-1.698;2022-12-07T06:34:35;14.93;;;13.77;;
16862;SDS011;52193;48.216;-1.698;2022-12-07T06:37:02;14.88;;;13.77;;
16862;SDS011;52193;48.216;-1.698;2022-12-07T06:39:29;15.35;;;14.15;;
16862;SDS011;52193;48.216;-1.698;2022-12-07T06:41:57;15.25;;;14.15;;
16862;SDS011;52193;48.216;-1.698;2022-12-07T06:44:24;15.07;;;14.07;;
16862;SDS011;52193;48.216;-1.698;2022-12-07T06:46:51;14.32;;;13.30;;
16862;SDS011;52193;48.216;-1.698;2022-12-07T06:49:20;14.98;;;13.98;;
16862;SDS011;52193;48.216;-1.698;2022-12-07T06:51:47;14.35;;;13.35;;
16862;SDS011;52193;48.216;-1.698;2022-12-07T06:54:14;14.55;;;13.45;;
16862;SDS011;52193;48.216;-1.698;2022-12-07T06:56:42;14.93;;;13.85;;
16862;SDS011;52193;48.216;-1.698;2022-12-07T06:59:09;15.00;;;13.82;;
16862;SDS011;52193;48.216;-1.698;2022-12-07T07:01:36;14.63;;;13.55;;
16862;SDS011;52193;48.216;-1.698;2022-12-07T07:04:03;15.45;;;14.32;;
16862;SDS011;52193;48.216;-1.698;2022-12-07T07:06:32;15.65;;;14.55;;
16862;SDS011;52193;48.216;-1.698;2022-12-07T07:08:59;15.97;;;14.77;;
16862;SDS011;52193;48.216;-1.698;2022-12-07T07:11:26;15.63;;;14.43;;
16862;SDS011;52193;48.216;-1.698;2022-12-07T07:13:53;16.38;;;15.07;;
16862;SDS011;52193;48.216;-1.698;2022-12-07T07:16:22;15.90;;;14.70;;
16862;SDS011;52193;48.216;-1.698;2022-12-07T07:18:49;15.30;;;14.20;;
16862;SDS011;52193;48.216;-1.698;2022-12-07T07:21:16;15.90;;;14.80;;
16862;SDS011;52193;48.216;-1.698;2022-12-07T07:23:44;16.95;;;15.65;;
16862;SDS011;52193;48.216;-1.698;2022-12-07T07:26:11;16.17;;;15.05;;
16862;SDS011;52193;48.216;-1.698;2022-12-07T07:28:38;16.87;;;15.57;;
16862;SDS011;52193;48.216;-1.698;2022-12-07T07:31:05;16.38;;;15.15;;
16862;SDS011;52193;48.216;-1.698;2022-12-07T07:33:32;16.35;;;15.15;;
16862;SDS011;52193;48.216;-1.698;2022-12-07T07:35:59;15.57;;;14.38;;
16862;SDS011;52193;48.216;-1.698;2022-12-07T07:38:27;15.32;;;14.23;;
16862;SDS011;52193;48.216;-1.698;2022-12-07T07:40:55;14.75;;;13.65;;
16862;SDS011;52193;48.216;-1.698;2022-12-07T07:43:22;14.82;;;13.80;;
16862;SDS011;52193;48.216;-1.698;2022-12-07T07:45:49;15.27;;;14.27;;
16862;SDS011;52193;48.216;-1.698;2022-12-07T07:48:16;15.33;;;14.23;;
16862;SDS011;52193;48.216;-1.698;2022-12-07T07:50:43;14.57;;;13.48;;
16862;SDS011;52193;48.216;-1.698;2022-12-07T07:53:10;15.35;;;14.25;;
16862;SDS011;52193;48.216;-1.698;2022-12-07T07:55:37;14.30;;;13.30;;
16862;SDS011;52193;48.216;-1.698;2022-12-07T07:58:05;17.17;;;15.87;;
16862;SDS011;52193;48.216;-1.698;2022-12-07T08:00:32;17.15;;;15.85;;
16862;SDS011;52193;48.216;-1.698;2022-12-07T08:02:59;17.47;;;16.07;;
16862;SDS011;52193;48.216;-1.698;2022-12-07T08:05:26;17.67;;;16.17;;
16862;SDS011;52193;48.216;-1.698;2022-12-07T08:07:53;16.63;;;15.32;;
16862;SDS011;52193;48.216;-1.698;2022-12-07T08:10:20;16.67;;;15.48;;
16862;SDS011;52193;48.216;-1.698;2022-12-07T08:12:47;16.48;;;15.27;;
16862;SDS011;52193;48.216;-1.698;2022-12-07T08:15:32;16.95;;;15.45;;
16862;SDS011;52193;48.216;-1.698;2022-12-07T08:17:59;16.00;;;14.90;;
16862;SDS011;52193;48.216;-1.698;2022-12-07T08:20:26;15.23;;;14.20;;
16862;SDS011;52193;48.216;-1.698;2022-12-07T08:22:55;16.00;;;14.83;;
16862;SDS011;52193;48.216;-1.698;2022-12-07T08:25:23;16.77;;;15.57;;
16862;SDS011;52193;48.216;-1.698;2022-12-07T08:27:50;16.67;;;15.48;;
16862;SDS011;52193;48.216;-1.698;2022-12-07T08:30:18;17.58;;;16.27;;
16862;SDS011;52193;48.216;-1.698;2022-12-07T08:32:47;16.95;;;15.75;;
16862;SDS011;52193;48.216;-1.698;2022-12-07T08:35:14;16.73;;;15.47;;
16862;SDS011;52193;48.216;-1.698;2022-12-07T08:37:42;16.55;;;15.27;;
16862;SDS011;52193;48.216;-1.698;2022-12-07T08:40:09;17.00;;;15.80;;
16862;SDS011;52193;48.216;-1.698;2022-12-07T08:42:40;18.08;;;16.60;;
16862;SDS011;52193;48.216;-1.698;2022-12-07T08:45:08;17.93;;;16.63;;
16862;SDS011;52193;48.216;-1.698;2022-12-07T08:47:37;21.40;;;19.60;;
16862;SDS011;52193;48.216;-1.698;2022-12-07T08:50:09;29.13;;;26.38;;
16862;SDS011;52193;48.216;-1.698;2022-12-07T08:52:37;32.08;;;29.00;;
16862;SDS011;52193;48.216;-1.698;2022-12-07T08:55:06;37.92;;;34.25;;
16862;SDS011;52193;48.216;-1.698;2022-12-07T08:57:35;64.45;;;57.90;;
16862;SDS011;52193;48.216;-1.698;2022-12-07T09:00:03;89.68;;;80.78;;
16862;SDS011;52193;48.216;-1.698;2022-12-07T09:02:31;89.50;;;80.45;;
16862;SDS011;52193;48.216;-1.698;2022-12-07T09:04:58;76.72;;;68.80;;
16862;SDS011;52193;48.216;-1.698;2022-12-07T09:07:27;65.40;;;58.80;;
16862;SDS011;52193;48.216;-1.698;2022-12-07T09:09:56;55.25;;;49.92;;
16862;SDS011;52193;48.216;-1.698;2022-12-07T09:12:23;46.63;;;42.13;;
16862;SDS011;52193;48.216;-1.698;2022-12-07T09:14:50;41.40;;;37.50;;
16862;SDS011;52193;48.216;-1.698;2022-12-07T09:17:17;42.25;;;38.25;;
16862;SDS011;52193;48.216;-1.698;2022-12-07T09:19:44;39.67;;;35.97;;
16862;SDS011;52193;48.216;-1.698;2022-12-07T09:22:11;41.25;;;37.22;;
16862;SDS011;52193;48.216;-1.698;2022-12-07T09:24:39;33.40;;;30.30;;
16862;SDS011;52193;48.216;-1.698;2022-12-07T09:27:06;17.42;;;16.08;;
16862;SDS011;52193;48.216;-1.698;2022-12-07T09:29:33;16.83;;;15.50;;
16862;SDS011;52193;48.216;-1.698;2022-12-07T09:32:00;15.75;;;14.55;;
16862;SDS011;52193;48.216;-1.698;2022-12-07T09:34:29;14.43;;;13.27;;
16862;SDS011;52193;48.216;-1.698;2022-12-07T09:36:57;14.80;;;13.80;;
16862;SDS011;52193;48.216;-1.698;2022-12-07T09:39:24;14.85;;;13.85;;
16862;SDS011;52193;48.216;-1.698;2022-12-07T09:41:53;14.25;;;13.25;;
16862;SDS011;52193;48.216;-1.698;2022-12-07T09:44:20;13.05;;;11.93;;
16862;SDS011;52193;48.216;-1.698;2022-12-07T09:46:50;13.80;;;12.80;;
16862;SDS011;52193;48.216;-1.698;2022-12-07T09:49:18;13.17;;;12.27;;
16862;SDS011;52193;48.216;-1.698;2022-12-07T09:51:47;12.98;;;11.98;;
16862;SDS011;52193;48.216;-1.698;2022-12-07T09:54:25;13.07;;;12.13;;
16862;SDS011;52193;48.216;-1.698;2022-12-07T09:56:53;13.07;;;12.18;;
16862;SDS011;52193;48.216;-1.698;2022-12-07T09:59:20;13.07;;;12.07;;
16862;SDS011;52193;48.216;-1.698;2022-12-07T10:01:48;13.53;;;12.53;;
16862;SDS011;52193;48.216;-1.698;2022-12-07T10:04:16;13.52;;;12.63;;
16862;SDS011;52193;48.216;-1.698;2022-12-07T10:06:46;14.23;;;13.20;;
16862;SDS011;52193;48.216;-1.698;2022-12-07T10:09:16;13.70;;;12.80;;
16862;SDS011;52193;48.216;-1.698;2022-12-07T10:12:02;14.50;;;13.50;;
16862;SDS011;52193;48.216;-1.698;2022-12-07T10:14:32;14.82;;;13.75;;
16862;SDS011;52193;48.216;-1.698;2022-12-07T10:17:01;15.50;;;14.40;;
16862;SDS011;52193;48.216;-1.698;2022-12-07T10:19:28;15.65;;;14.45;;
16862;SDS011;52193;48.216;-1.698;2022-12-07T10:24:46;15.30;;;14.20;;
16862;SDS011;52193;48.216;-1.698;2022-12-07T10:27:19;15.10;;;14.00;;
16862;SDS011;52193;48.216;-1.698;2022-12-07T10:29:48;15.10;;;13.90;;
16862;SDS011;52193;48.216;-1.698;2022-12-07T10:32:28;14.82;;;13.73;;
16862;SDS011;52193;48.216;-1.698;2022-12-07T10:35:18;15.60;;;14.40;;
16862;SDS011;52193;48.216;-1.698;2022-12-07T10:37:48;16.23;;;15.00;;
16862;SDS011;52193;48.216;-1.698;2022-12-07T10:40:24;15.15;;;14.07;;
16862;SDS011;52193;48.216;-1.698;2022-12-07T10:43:05;14.00;;;13.00;;
16862;SDS011;52193;48.216;-1.698;2022-12-07T10:45:45;13.77;;;12.68;;
16862;SDS011;52193;48.216;-1.698;2022-12-07T10:48:38;14.38;;;13.27;;
16862;SDS011;52193;48.216;-1.698;2022-12-07T10:51:15;14.30;;;13.30;;
16862;SDS011;52193;48.216;-1.698;2022-12-07T10:53:50;13.93;;;12.83;;
16862;SDS011;52193;48.216;-1.698;2022-12-07T10:56:29;14.30;;;13.20;;
16862;SDS011;52193;48.216;-1.698;2022-12-07T10:59:18;14.77;;;13.68;;
16862;SDS011;52193;48.216;-1.698;2022-12-07T11:02:09;15.60;;;14.30;;
16862;SDS011;52193;48.216;-1.698;2022-12-07T11:04:50;13.95;;;12.85;;
16862;SDS011;52193;48.216;-1.698;2022-12-07T11:07:32;14.00;;;13.00;;
16862;SDS011;52193;48.216;-1.698;2022-12-07T11:10:08;14.10;;;13.00;;
16862;SDS011;52193;48.216;-1.698;2022-12-07T11:12:46;13.48;;;12.48;;
16862;SDS011;52193;48.216;-1.698;2022-12-07T11:15:31;13.65;;;12.65;;
16862;SDS011;52193;48.216;-1.698;2022-12-07T11:18:11;13.55;;;12.45;;
16862;SDS011;52193;48.216;-1.698;2022-12-07T11:20:48;12.98;;;12.10;;
16862;SDS011;52193;48.216;-1.698;2022-12-07T11:23:21;13.05;;;11.95;;
16862;SDS011;52193;48.216;-1.698;2022-12-07T11:25:58;12.67;;;11.77;;
16862;SDS011;52193;48.216;-1.698;2022-12-07T11:28:36;14.07;;;12.97;;
16862;SDS011;52193;48.216;-1.698;2022-12-07T11:31:17;13.38;;;12.43;;
16862;SDS011;52193;48.216;-1.698;2022-12-07T11:33:49;14.00;;;12.90;;
16862;SDS011;52193;48.216;-1.698;2022-12-07T11:36:26;13.13;;;12.23;;
16862;SDS011;52193;48.216;-1.698;2022-12-07T11:39:01;13.27;;;12.38;;
16862;SDS011;52193;48.216;-1.698;2022-12-07T11:41:31;12.33;;;11.47;;
16862;SDS011;52193;48.216;-1.698;2022-12-07T11:44:02;12.07;;;11.27;;
16862;SDS011;52193;48.216;-1.698;2022-12-07T11:46:39;12.15;;;11.23;;
16862;SDS011;52193;48.216;-1.698;2022-12-07T11:49:14;11.45;;;10.60;;
16862;SDS011;52193;48.216;-1.698;2022-12-07T11:51:47;11.32;;;10.43;;
16862;SDS011;52193;48.216;-1.698;2022-12-07T11:54:18;10.95;;;10.25;;
16862;SDS011;52193;48.216;-1.698;2022-12-07T11:56:49;11.18;;;10.40;;
16862;SDS011;52193;48.216;-1.698;2022-12-07T11:59:22;11.70;;;10.80;;
16862;SDS011;52193;48.216;-1.698;2022-12-07T12:01:58;10.80;;;10.00;;
16862;SDS011;52193;48.216;-1.698;2022-12-07T12:04:41;11.68;;;10.88;;
16862;SDS011;52193;48.216;-1.698;2022-12-07T12:07:17;10.75;;;10.05;;
16862;SDS011;52193;48.216;-1.698;2022-12-07T12:09:48;11.02;;;10.32;;
16862;SDS011;52193;48.216;-1.698;2022-12-07T12:15:20;11.70;;;10.83;;
16862;SDS011;52193;48.216;-1.698;2022-12-07T12:18:02;11.55;;;10.75;;
16862;SDS011;52193;48.216;-1.698;2022-12-07T12:20:58;11.93;;;11.13;;
16862;SDS011;52193;48.216;-1.698;2022-12-07T12:23:32;11.02;;;10.32;;
16862;SDS011;52193;48.216;-1.698;2022-12-07T12:26:07;11.90;;;10.95;;
16862;SDS011;52193;48.216;-1.698;2022-12-07T12:28:42;12.20;;;11.30;;
16862;SDS011;52193;48.216;-1.698;2022-12-07T12:31:29;13.32;;;12.32;;
16862;SDS011;52193;48.216;-1.698;2022-12-07T12:36:57;12.15;;;11.35;;
16862;SDS011;52193;48.216;-1.698;2022-12-07T12:39:25;11.63;;;10.83;;
16862;SDS011;52193;48.216;-1.698;2022-12-07T12:41:53;11.52;;;10.70;;
16862;SDS011;52193;48.216;-1.698;2022-12-07T12:44:40;11.50;;;10.70;;
16862;SDS011;52193;48.216;-1.698;2022-12-07T12:47:42;11.27;;;10.50;;
16862;SDS011;52193;48.216;-1.698;2022-12-07T12:50:21;11.15;;;10.35;;
16862;SDS011;52193;48.216;-1.698;2022-12-07T12:52:51;11.40;;;10.60;;
16862;SDS011;52193;48.216;-1.698;2022-12-07T12:58:43;11.00;;;10.30;;
16862;SDS011;52193;48.216;-1.698;2022-12-07T13:07:10;11.38;;;10.57;;
16862;SDS011;52193;48.216;-1.698;2022-12-07T13:09:41;10.88;;;10.18;;
16862;SDS011;52193;48.216;-1.698;2022-12-07T13:12:14;11.85;;;10.95;;
16862;SDS011;52193;48.216;-1.698;2022-12-07T13:14:55;11.15;;;10.35;;
16862;SDS011;52193;48.216;-1.698;2022-12-07T13:20:46;11.30;;;10.50;;
16862;SDS011;52193;48.216;-1.698;2022-12-07T13:23:18;11.90;;;11.00;;
16862;SDS011;52193;48.216;-1.698;2022-12-07T13:28:40;12.53;;;11.57;;
16862;SDS011;52193;48.216;-1.698;2022-12-07T13:31:11;12.10;;;11.30;;
16862;SDS011;52193;48.216;-1.698;2022-12-07T13:33:49;11.40;;;10.50;;
16862;SDS011;52193;48.216;-1.698;2022-12-07T13:36:18;11.43;;;10.60;;
16862;SDS011;52193;48.216;-1.698;2022-12-07T13:38:50;13.27;;;12.27;;
16862;SDS011;52193;48.216;-1.698;2022-12-07T13:41:20;12.00;;;11.10;;
16862;SDS011;52193;48.216;-1.698;2022-12-07T13:43:50;11.75;;;10.95;;
16862;SDS011;52193;48.216;-1.698;2022-12-07T13:46:29;11.90;;;11.00;;
16862;SDS011;52193;48.216;-1.698;2022-12-07T13:49:13;13.57;;;12.57;;
16862;SDS011;52193;48.216;-1.698;2022-12-07T13:51:47;12.43;;;11.52;;
16862;SDS011;52193;48.216;-1.698;2022-12-07T13:54:16;14.43;;;13.27;;
16862;SDS011;52193;48.216;-1.698;2022-12-07T13:56:44;14.57;;;13.48;;
16862;SDS011;52193;48.216;-1.698;2022-12-07T13:59:16;13.23;;;12.32;;
16862;SDS011;52193;48.216;-1.698;2022-12-07T14:01:45;14.77;;;13.67;;
16862;SDS011;52193;48.216;-1.698;2022-12-07T14:04:16;13.67;;;12.70;;
16862;SDS011;52193;48.216;-1.698;2022-12-07T14:06:48;13.15;;;12.15;;
16862;SDS011;52193;48.216;-1.698;2022-12-07T14:09:19;14.05;;;12.95;;
16862;SDS011;52193;48.216;-1.698;2022-12-07T14:11:49;13.77;;;12.77;;
16862;SDS011;52193;48.216;-1.698;2022-12-07T14:14:18;14.00;;;13.00;;
16862;SDS011;52193;48.216;-1.698;2022-12-07T14:16:55;12.85;;;11.95;;
16862;SDS011;52193;48.216;-1.698;2022-12-07T14:22:15;11.70;;;10.63;;
16862;SDS011;52193;48.216;-1.698;2022-12-07T14:25:15;11.40;;;10.50;;
16862;SDS011;52193;48.216;-1.698;2022-12-07T14:27:48;10.88;;;10.07;;
16862;SDS011;52193;48.216;-1.698;2022-12-07T14:30:21;9.80;;;9.10;;
16862;SDS011;52193;48.216;-1.698;2022-12-07T14:32:50;10.27;;;9.55;;
16862;SDS011;52193;48.216;-1.698;2022-12-07T14:35:19;11.80;;;10.88;;
16862;SDS011;52193;48.216;-1.698;2022-12-07T14:37:47;12.70;;;11.60;;
16862;SDS011;52193;48.216;-1.698;2022-12-07T14:40:16;13.80;;;12.70;;
16862;SDS011;52193;48.216;-1.698;2022-12-07T14:42:44;22.90;;;20.92;;
16862;SDS011;52193;48.216;-1.698;2022-12-07T14:45:14;11.43;;;10.43;;
16862;SDS011;52193;48.216;-1.698;2022-12-07T14:47:43;11.75;;;10.85;;
16862;SDS011;52193;48.216;-1.698;2022-12-07T14:50:11;12.18;;;11.23;;
16862;SDS011;52193;48.216;-1.698;2022-12-07T14:52:39;11.32;;;10.52;;
16862;SDS011;52193;48.216;-1.698;2022-12-07T14:55:12;10.27;;;9.43;;
16862;SDS011;52193;48.216;-1.698;2022-12-07T14:57:43;10.05;;;9.27;;